Weather History for Houghton, MI

Change the Weather History Date:

Monday, November 18, 2013

  Actual Average Record
Temperature  
Mean Temperature 28 °F -  
Max Temperature 33 °F 36 °F 64 °F (1953)
Min Temperature 24 °F 25 °F 7 °F (1959)
Degree Days  
Heating Degree Days 36    
Moisture  
Dew Point 21 °F    
Average Humidity 74    
Maximum Humidity 88    
Minimum Humidity 59    
Precipitation  
Precipitation 0.08 in - - ()
Sea Level Pressure  
Sea Level Pressure 29.69 in    
Wind  
Wind Speed 26 mph (NW)    
Max Wind Speed 34 mph    
Max Gust Speed 45 mph    
Visibility 4 miles    
Events Fog , Snow    
Averages and records for this station are not official NWS values.
T = Trace of Precipitation, MM = Missing Value Source: NWS Daily Summary

Daily Weather History Graph

Daily Weather History Graph

Search for Another Location

Airport:

Trip Planner

Search our weather history database for the weather conditions in past years. The results will help you decide how hot, cold, wet, or windy it might be!

Date:

Astronomy

Nov. 18, 2013 Rise Set
Actual Time 8:02 AM EST 5:15 PM EST
Civil Twilight 7:28 AM EST 5:49 PM EST
Nautical Twilight 6:51 AM EST 6:26 PM EST
Astronomical Twilight 6:15 AM EST 7:02 PM EST
Moon 6:16 PM EST (11/18) 8:51 AM EST (11/18)
Length of Visible Light 10h 20m
Length of Day
9h 12m
Full, 99% of the Moon is Illuminated
Nov 18
Full
Nov 25
Last Quarter
Dec 2
New
Dec 9
First Quarter
Dec 17
Full

Hourly Weather History & Observations

Time (EST) Temp. Windchill Dew Point Humidity Pressure Visibility Wind Dir Wind Speed Gust Speed Precip Events Conditions
12:06 AM 33.8 °F 20.8 °F 30.2 °F 87% 29.30 in 3.0 mi WNW 26.5 mph 35.7 mph 0.00 in Snow Light Snow
12:09 AM 33.8 °F 19.2 °F 30.2 °F 87% 29.30 in 2.0 mi WNW 34.5 mph 44.9 mph 0.00 in Snow Light Snow
12:15 AM 33.8 °F 20.3 °F 28.4 °F 81% 29.30 in 2.0 mi WNW 28.8 mph 44.9 mph 0.00 in Snow Light Snow
12:23 AM 33.8 °F 20.1 °F 28.4 °F 81% 29.30 in 5.0 mi West 29.9 mph 40.3 mph 0.00 in Snow Light Snow
12:40 AM 33.8 °F 20.5 °F 28.4 °F 81% 29.31 in 3.0 mi WNW 27.6 mph 43.7 mph 0.00 in Snow Light Snow
12:53 AM 33.1 °F 19.3 °F 28.0 °F 82% 29.34 in 5.0 mi West 28.8 mph 43.7 mph 0.01 in Snow Light Snow
1:22 AM 33.8 °F 20.3 °F 28.4 °F 81% 29.33 in 1.8 mi WNW 28.8 mph 41.4 mph 0.00 in Snow Light Snow
1:35 AM 32.0 °F 18.1 °F 28.4 °F 87% 29.34 in 1.0 mi WNW 27.6 mph 41.4 mph 0.00 in Snow Light Snow
1:53 AM 32.0 °F 17.9 °F 28.9 °F 88% 29.37 in 1.2 mi WNW 28.8 mph 39.1 mph 0.01 in Snow Light Snow
2:11 AM 33.8 °F 20.5 °F 28.4 °F 81% 29.36 in 2.5 mi WNW 27.6 mph 39.1 mph 0.00 in Snow Light Snow
2:18 AM 33.8 °F 20.5 °F 28.4 °F 81% 29.37 in 4.0 mi WNW 27.6 mph 39.1 mph 0.00 in Snow Light Snow
2:34 AM 32.0 °F 18.6 °F 28.4 °F 87% 29.38 in 1.8 mi WNW 25.3 mph 43.7 mph 0.01 in Snow Light Snow
2:40 AM 33.8 °F 20.8 °F 28.4 °F 81% 29.39 in 3.0 mi WNW 26.5 mph 36.8 mph 0.01 in   Overcast
2:53 AM 32.0 °F 17.6 °F 28.0 °F 85% 29.42 in 4.0 mi WNW 29.9 mph 39.1 mph 0.01 in Snow Light Snow
3:53 AM 32.0 °F 17.0 °F 26.1 °F 79% 29.45 in 10.0 mi WNW 33.4 mph 42.6 mph 0.00 in   Overcast
4:53 AM 30.0 °F 14.9 °F 25.0 °F 82% 29.49 in 2.5 mi NW 29.9 mph 39.1 mph 0.00 in Snow Light Snow
5:02 AM 30.2 °F 15.7 °F 24.8 °F 80% 29.46 in 5.0 mi NW 27.6 mph 38.0 mph 0.01 in   Overcast
5:13 AM 30.2 °F 15.9 °F 24.8 °F 80% 29.47 in 2.5 mi WNW 26.5 mph 35.7 mph 0.01 in Snow Light Snow
5:20 AM 30.2 °F 16.8 °F 24.8 °F 80% 29.47 in 7.0 mi WNW 23.0 mph 39.1 mph 0.01 in   Overcast
5:53 AM 30.0 °F 16.3 °F 23.0 °F 75% 29.52 in 8.0 mi WNW 24.2 mph 39.1 mph 0.01 in   Overcast
6:53 AM 28.0 °F 14.6 °F 21.0 °F 75% 29.57 in 7.0 mi NW 20.7 mph 36.8 mph 0.01 in Snow Light Snow
7:22 AM 28.4 °F 13.5 °F 21.2 °F 74% 29.56 in 2.5 mi NW 26.5 mph 36.8 mph 0.00 in Snow Light Snow
7:46 AM 26.6 °F 11.4 °F 21.2 °F 80% 29.58 in 1.5 mi NW 25.3 mph 35.7 mph 0.00 in Snow Light Snow
7:53 AM 27.0 °F 11.3 °F 21.0 °F 78% 29.62 in 2.0 mi NW 27.6 mph 38.0 mph 0.00 in Snow Light Snow
8:03 AM 26.6 °F 11.4 °F 21.2 °F 80% 29.60 in 1.2 mi NW 25.3 mph 35.7 mph 0.00 in Snow Light Snow
8:16 AM 26.6 °F 10.0 °F 19.4 °F 74% 29.61 in 3.0 mi NW 31.1 mph 39.1 mph 0.00 in Snow Light Snow
8:27 AM 26.6 °F 11.4 °F 19.4 °F 74% 29.62 in 1.5 mi NW 25.3 mph 36.8 mph 0.00 in Snow Light Snow
8:38 AM 26.6 °F 12.4 °F 21.2 °F 80% 29.63 in 0.8 mi NW 21.9 mph 34.5 mph 0.00 in Snow Light Snow
8:50 AM 26.6 °F 11.4 °F 19.4 °F 74% 29.64 in 1.2 mi NW 25.3 mph 35.7 mph 0.00 in Snow Light Snow
8:53 AM 26.1 °F 11.3 °F 19.9 °F 78% 29.68 in 1.0 mi NW 23.0 mph 35.7 mph 0.00 in Snow Light Snow
9:13 AM 26.6 °F 10.6 °F 19.4 °F 74% 29.66 in 0.8 mi NW 28.8 mph 36.8 mph 0.01 in Snow Light Snow
9:33 AM 26.6 °F 11.7 °F 19.4 °F 74% 29.67 in 1.0 mi NW 24.2 mph 36.8 mph 0.01 in Snow Light Snow
9:42 AM 26.6 °F 11.1 °F 19.4 °F 74% 29.68 in 0.8 mi NW 26.5 mph 35.7 mph 0.01 in Snow Light Snow
9:53 AM 25.0 °F 10.2 °F 21.0 °F 85% 29.73 in 0.2 mi NW 21.9 mph 39.1 mph 0.01 in Fog , Snow Snow
10:06 AM 26.6 °F 11.1 °F 19.4 °F 74% 29.70 in 0.8 mi NW 26.5 mph 41.4 mph 0.01 in Snow Light Snow
10:25 AM 26.6 °F 11.4 °F 19.4 °F 74% 29.71 in 1.0 mi NW 25.3 mph 35.7 mph 0.01 in Snow Light Snow
10:41 AM 26.6 °F 11.4 °F 19.4 °F 74% 29.73 in 3.0 mi NW 25.3 mph 35.7 mph 0.01 in Snow Light Snow
10:45 AM 26.6 °F 11.1 °F 19.4 °F 74% 29.73 in 1.8 mi NW 26.5 mph 36.8 mph 0.01 in Snow Light Snow
10:53 AM 26.1 °F 11.0 °F 19.0 °F 75% 29.78 in 1.2 mi NW 24.2 mph 36.8 mph 0.01 in Snow Light Snow
11:13 AM 26.6 °F 12.0 °F 19.4 °F 74% 29.75 in 2.0 mi NNW 23.0 mph 33.4 mph 0.00 in Snow Light Snow
11:42 AM 26.6 °F 11.4 °F 19.4 °F 74% 29.77 in 1.5 mi NW 25.3 mph 41.4 mph 0.00 in Snow Light Snow
11:50 AM 26.6 °F 11.4 °F 17.6 °F 69% 29.77 in 3.0 mi NW 25.3 mph 36.8 mph 0.00 in Snow Light Snow
11:53 AM 26.1 °F 9.8 °F 18.0 °F 71% 29.82 in 3.0 mi NW 28.8 mph 36.8 mph 0.00 in Snow Light Snow
12:06 PM 26.6 °F 11.4 °F 17.6 °F 69% 29.78 in 2.5 mi NW 25.3 mph 35.7 mph 0.00 in Snow Light Snow
12:17 PM 26.6 °F 11.1 °F 17.6 °F 69% 29.79 in 3.0 mi NW 26.5 mph 34.5 mph 0.00 in Snow Light Snow
12:25 PM 26.6 °F 10.6 °F 19.4 °F 74% 29.79 in 2.5 mi NW 28.8 mph 36.8 mph 0.00 in Snow Light Snow
12:53 PM 27.0 °F 12.2 °F 19.0 °F 72% 29.86 in 4.0 mi NW 24.2 mph 32.2 mph 0.00 in Snow Light Snow
1:18 PM 26.6 °F 11.7 °F 19.4 °F 74% 29.83 in 1.8 mi NW 24.2 mph 34.5 mph 0.00 in Snow Light Snow
1:53 PM 27.0 °F 12.5 °F 19.0 °F 72% 29.90 in 1.8 mi NW 23.0 mph 29.9 mph 0.01 in Snow Light Snow
1:57 PM 26.6 °F 12.0 °F 19.4 °F 74% 29.86 in 3.0 mi NW 23.0 mph - 0.00 in Snow Light Snow
2:53 PM 27.0 °F 12.2 °F 18.0 °F 69% 29.94 in 8.0 mi WNW 24.2 mph 33.4 mph 0.00 in Snow Light Snow
3:53 PM 28.0 °F 13.6 °F 17.1 °F 63% 29.97 in 10.0 mi NW 24.2 mph 31.1 mph 0.00 in   Overcast
4:02 PM 28.4 °F 14.4 °F 17.6 °F 64% 29.93 in 10.0 mi NW 23.0 mph 31.1 mph N/A   Overcast
4:13 PM 28.4 °F 13.8 °F 17.6 °F 64% 29.93 in 10.0 mi WNW 25.3 mph 32.2 mph N/A   Overcast
4:37 PM 26.6 °F 13.1 °F 15.8 °F 64% 29.94 in 10.0 mi NW 19.6 mph 28.8 mph N/A   Mostly Cloudy
4:53 PM 27.0 °F 13.2 °F 16.0 °F 63% 30.00 in 10.0 mi NW 20.7 mph 28.8 mph N/A   Mostly Cloudy
5:20 PM 28.4 °F 15.4 °F 17.6 °F 64% 29.97 in 10.0 mi WNW 19.6 mph 32.2 mph N/A   Overcast
5:29 PM 28.4 °F 14.4 °F 15.8 °F 59% 29.98 in 10.0 mi WNW 23.0 mph 32.2 mph N/A   Overcast
5:53 PM 27.0 °F 13.5 °F 15.1 °F 61% 30.04 in 10.0 mi NW 19.6 mph 29.9 mph N/A   Overcast
6:53 PM 27.0 °F 13.5 °F 16.0 °F 63% 30.06 in 10.0 mi NW 19.6 mph 26.5 mph N/A   Overcast
7:39 PM 26.6 °F 13.8 °F 15.8 °F 64% 30.04 in 10.0 mi NW 17.3 mph 26.5 mph N/A   Overcast
7:53 PM 27.0 °F 14.3 °F 16.0 °F 63% 30.10 in 10.0 mi NW 17.3 mph 28.8 mph N/A   Overcast
8:53 PM 25.0 °F 11.7 °F 16.0 °F 69% 30.13 in 10.0 mi NW 17.3 mph 24.2 mph N/A   Mostly Cloudy
9:53 PM 24.1 °F 12.0 °F 16.0 °F 71% 30.15 in 10.0 mi NNW 13.8 mph 19.6 mph N/A   Overcast
10:53 PM 25.0 °F 13.1 °F 15.1 °F 66% 30.17 in 10.0 mi NW 13.8 mph 19.6 mph N/A   Overcast
11:53 PM 24.1 °F 12.0 °F 14.0 °F 65% 30.20 in 10.0 mi NW 13.8 mph - N/A   Overcast